createdAt,value
2022-11-12T00:02:34.640Z,12.05
2022-11-12T00:05:23.991Z,11.52
2022-11-12T00:08:11.782Z,12.95
2022-11-12T00:10:59.528Z,13.68
2022-11-12T00:13:47.523Z,14.23
2022-11-12T00:16:35.179Z,12.05
2022-11-12T00:19:22.496Z,10.43
2022-11-12T00:22:11.602Z,10.13
2022-11-12T00:24:59.768Z,11.05
2022-11-12T00:27:47.485Z,11.65
2022-11-12T00:30:36.633Z,11.82
2022-11-12T00:33:24.375Z,11.43
2022-11-12T00:39:01.507Z,11.77
2022-11-12T00:41:49.474Z,10.52
2022-11-12T00:44:36.974Z,12.48
2022-11-12T00:47:24.964Z,10.85
2022-11-12T00:52:59.813Z,11.32
2022-11-12T00:55:49.071Z,11.82
2022-11-12T00:58:37.801Z,12.50
2022-11-12T01:01:26.366Z,13.18
2022-11-12T01:04:14.142Z,14.30
2022-11-12T01:07:01.773Z,14.35
2022-11-12T01:09:49.412Z,16.15
2022-11-12T01:12:38.975Z,16.45
2022-11-12T01:15:27.025Z,16.52
2022-11-12T01:18:14.394Z,18.52
2022-11-12T01:21:03.206Z,18.83
2022-11-12T01:23:51.034Z,19.92
2022-11-12T01:26:39.704Z,15.10
2022-11-12T01:29:28.748Z,19.95
2022-11-12T01:32:16.111Z,15.30
2022-11-12T01:35:03.941Z,15.13
2022-11-12T01:37:51.550Z,16.38
2022-11-12T01:40:39.226Z,16.15
2022-11-12T01:43:27.225Z,17.50
2022-11-12T01:46:21.416Z,13.95
2022-11-12T01:49:15.278Z,14.60
2022-11-12T01:52:14.871Z,13.07
2022-11-12T01:55:08.465Z,13.75
2022-11-12T01:58:00.773Z,13.45
2022-11-12T02:00:49.684Z,14.48
2022-11-12T02:03:39.419Z,14.00
2022-11-12T02:06:26.682Z,16.42
2022-11-12T02:09:15.145Z,15.63
2022-11-12T02:12:02.757Z,14.13
2022-11-12T02:14:49.847Z,14.77
2022-11-12T02:17:37.107Z,13.45
2022-11-12T02:20:26.904Z,12.88
2022-11-12T02:23:15.837Z,11.95
2022-11-12T02:26:03.987Z,11.65
2022-11-12T02:28:51.800Z,12.35
2022-11-12T02:31:39.423Z,11.63
2022-11-12T02:34:27.178Z,11.10
2022-11-12T02:37:14.871Z,11.52
2022-11-12T02:40:03.770Z,11.13
2022-11-12T02:42:51.512Z,12.57
2022-11-12T02:45:39.515Z,13.48
2022-11-12T02:48:27.302Z,12.90
2022-11-12T02:51:18.420Z,14.90
2022-11-12T02:54:06.524Z,13.18
2022-11-12T02:56:55.556Z,14.60
2022-11-12T02:59:45.919Z,14.25
2022-11-12T03:02:33.729Z,13.55
2022-11-12T03:05:21.863Z,13.98
2022-11-12T03:08:10.897Z,12.07
2022-11-12T03:10:58.191Z,11.73
2022-11-12T03:16:35.368Z,9.85
2022-11-12T03:19:22.969Z,10.27
2022-11-12T03:22:10.855Z,10.40
2022-11-12T03:24:58.484Z,10.20
2022-11-12T03:27:46.087Z,11.07
2022-11-12T03:33:24.497Z,10.80
2022-11-12T03:36:12.290Z,11.02
2022-11-12T03:38:59.729Z,10.57
2022-11-12T03:44:35.173Z,11.77
2022-11-12T03:47:24.096Z,12.10
2022-11-12T03:50:12.263Z,11.65
2022-11-12T03:53:01.202Z,12.77
2022-11-12T03:55:48.694Z,11.45
2022-11-12T03:58:36.280Z,11.77
2022-11-12T04:01:24.085Z,12.10
2022-11-12T04:07:18.281Z,11.25
2022-11-12T04:10:06.741Z,11.48
2022-11-12T04:13:12.057Z,10.82
2022-11-12T04:16:20.124Z,10.13
2022-11-12T04:19:27.586Z,9.87
2022-11-12T04:22:16.927Z,10.32
2022-11-12T04:25:22.538Z,9.68
2022-11-12T04:28:10.371Z,9.73
2022-11-12T04:30:56.927Z,9.73
2022-11-12T04:33:44.598Z,9.48
2022-11-12T04:36:32.141Z,9.48
2022-11-12T04:39:21.242Z,9.77
2022-11-12T04:42:28.387Z,10.02
2022-11-12T04:45:15.848Z,10.88
2022-11-12T04:51:00.343Z,10.60
2022-11-12T04:53:51.527Z,9.38
2022-11-12T04:56:40.374Z,9.95
2022-11-12T04:59:28.036Z,10.27
2022-11-12T05:05:03.425Z,11.23
2022-11-12T05:07:51.532Z,10.43
2022-11-12T05:10:39.458Z,12.50
2022-11-12T05:13:29.392Z,10.45
2022-11-12T05:16:16.905Z,10.18
2022-11-12T05:22:17.424Z,9.77
2022-11-12T05:25:10.759Z,9.48
2022-11-12T05:27:58.608Z,8.60
2022-11-12T05:30:49.487Z,8.82
2022-11-12T05:33:36.934Z,8.45
2022-11-12T05:36:24.432Z,8.48
2022-11-12T05:39:12.043Z,7.93
2022-11-12T05:42:12.837Z,7.45
2022-11-12T05:45:00.629Z,8.82
2022-11-12T05:47:50.924Z,8.63
2022-11-12T05:50:45.422Z,8.95
2022-11-12T05:53:45.878Z,9.38
2022-11-12T05:59:22.293Z,8.05
2022-11-12T06:02:10.450Z,9.27
2022-11-12T06:04:59.360Z,9.13
2022-11-12T06:07:46.806Z,9.27
2022-11-12T06:10:34.818Z,9.68
2022-11-12T06:13:25.261Z,9.50
2022-11-12T06:16:12.761Z,9.02
2022-11-12T06:19:00.599Z,8.52
2022-11-12T06:21:49.941Z,8.40
2022-11-12T06:24:37.952Z,8.65
2022-11-12T06:27:25.920Z,7.25
2022-11-12T06:30:14.103Z,8.32
2022-11-12T06:33:01.632Z,8.63
2022-11-12T06:35:49.127Z,8.43
2022-11-12T06:38:41.132Z,9.00
2022-11-12T06:41:28.438Z,8.65
2022-11-12T06:44:21.798Z,8.82
2022-11-12T06:47:10.962Z,9.50
2022-11-12T06:49:58.870Z,8.40
2022-11-12T06:52:46.342Z,8.43
2022-11-12T06:55:35.591Z,8.43
2022-11-12T06:58:22.884Z,8.13
2022-11-12T07:01:15.111Z,7.72
2022-11-12T07:04:02.645Z,8.73
2022-11-12T07:06:50.443Z,9.07
2022-11-12T07:09:38.155Z,8.65
2022-11-12T07:12:27.242Z,8.95
2022-11-12T07:15:14.455Z,8.65
2022-11-12T07:18:01.954Z,7.75
2022-11-12T07:20:49.664Z,7.70
2022-11-12T07:23:38.427Z,7.10
2022-11-12T07:26:28.505Z,8.60
2022-11-12T07:29:35.684Z,7.65
2022-11-12T07:35:12.509Z,8.77
2022-11-12T07:37:59.885Z,8.27
2022-11-12T07:40:47.438Z,12.80
2022-11-12T07:43:37.369Z,9.30
2022-11-12T07:46:28.599Z,11.52
2022-11-12T07:49:16.027Z,8.63
2022-11-12T07:52:04.169Z,11.10
2022-11-12T07:57:39.035Z,7.00
2022-11-12T08:00:26.659Z,7.20
2022-11-12T08:03:17.721Z,9.20
2022-11-12T08:06:06.148Z,7.05
2022-11-12T08:08:54.430Z,6.78
2022-11-12T08:11:42.506Z,6.63
2022-11-12T08:17:17.004Z,7.55
2022-11-12T08:22:54.920Z,6.68
2022-11-12T08:28:31.183Z,6.60
2022-11-12T08:31:22.163Z,7.05
2022-11-12T08:34:21.399Z,6.05
2022-11-12T08:37:11.492Z,6.50
2022-11-12T08:39:59.424Z,5.82
2022-11-12T08:45:35.543Z,5.65
2022-11-12T08:48:23.051Z,5.22
2022-11-12T08:51:10.247Z,5.28
2022-11-12T08:53:59.159Z,5.60
2022-11-12T08:56:47.132Z,5.40
2022-11-12T08:59:36.818Z,4.88
2022-11-12T09:02:24.485Z,4.50
2022-11-12T09:05:11.746Z,3.90
2022-11-12T09:08:00.354Z,4.68
2022-11-12T09:10:50.333Z,4.22
2022-11-12T09:13:39.315Z,4.50
2022-11-12T09:16:27.235Z,4.15
2022-11-12T09:19:15.039Z,4.03
2022-11-12T09:22:02.426Z,4.78
2022-11-12T09:24:50.266Z,4.13
2022-11-12T09:27:41.197Z,3.83
2022-11-12T09:30:31.960Z,4.28
2022-11-12T09:33:23.724Z,3.90
2022-11-12T09:36:11.675Z,4.85
2022-11-12T09:38:59.087Z,3.80
2022-11-12T09:41:46.609Z,4.18
2022-11-12T09:44:40.209Z,4.80
2022-11-12T09:47:33.544Z,4.68
2022-11-12T09:50:26.382Z,4.95
2022-11-12T09:53:18.259Z,5.10
2022-11-12T09:56:11.877Z,5.45
2022-11-12T09:58:59.565Z,5.65
2022-11-12T10:05:02.182Z,4.93
2022-11-12T10:08:09.184Z,5.03
2022-11-12T10:11:11.323Z,4.63
2022-11-12T10:14:13.609Z,4.55
2022-11-12T10:17:10.656Z,4.55
2022-11-12T10:20:16.538Z,4.03
2022-11-12T10:23:17.512Z,4.63
2022-11-12T10:26:13.869Z,4.20
2022-11-12T10:29:13.880Z,3.90
2022-11-12T10:32:05.720Z,3.80
2022-11-12T10:34:54.255Z,3.83
2022-11-12T10:37:49.839Z,4.38
2022-11-12T10:40:40.207Z,3.88
2022-11-12T10:43:28.097Z,4.95
2022-11-12T10:46:21.988Z,4.55
2022-11-12T10:49:26.190Z,5.10
2022-11-12T10:52:24.580Z,5.00
2022-11-12T10:55:20.964Z,5.18
2022-11-12T10:58:21.263Z,3.90
2022-11-12T11:01:18.831Z,4.72
2022-11-12T11:04:16.752Z,4.18
2022-11-12T11:07:08.801Z,2.90
2022-11-12T11:09:58.744Z,3.20
2022-11-12T11:12:47.936Z,3.28
2022-11-12T11:15:35.525Z,3.20
2022-11-12T11:18:23.963Z,3.97
2022-11-12T11:21:47.337Z,4.50
2022-11-12T11:24:50.166Z,3.40
2022-11-12T11:27:49.718Z,3.00
2022-11-12T11:30:45.907Z,3.08
2022-11-12T11:33:46.788Z,2.70
2022-11-12T11:36:43.401Z,3.10
2022-11-12T11:39:46.725Z,2.55
2022-11-12T11:42:58.802Z,2.22
2022-11-12T11:46:07.198Z,2.10
2022-11-12T11:49:20.706Z,2.45
2022-11-12T11:52:41.814Z,3.10
2022-11-12T11:55:52.635Z,2.53
2022-11-12T11:59:00.995Z,3.17
2022-11-12T12:02:12.165Z,3.40
2022-11-12T12:05:22.818Z,2.63
2022-11-12T12:08:17.929Z,2.45
2022-11-12T12:11:13.371Z,2.30
2022-11-12T12:14:23.882Z,2.38
2022-11-12T12:17:27.853Z,2.45
2022-11-12T12:20:30.335Z,2.20
2022-11-12T12:23:28.703Z,2.20
2022-11-12T12:29:17.131Z,2.55
2022-11-12T12:32:13.315Z,2.20
2022-11-12T12:35:11.844Z,2.35
2022-11-12T12:38:12.700Z,2.40
2022-11-12T12:41:11.058Z,2.40
2022-11-12T12:46:58.480Z,2.15
2022-11-12T12:49:48.933Z,2.25
2022-11-12T12:53:05.463Z,2.10
2022-11-12T12:55:54.783Z,2.28
2022-11-12T12:58:46.018Z,2.38
2022-11-12T13:01:37.447Z,2.65
2022-11-12T13:04:55.210Z,2.63
2022-11-12T13:07:46.847Z,2.30
2022-11-12T13:10:56.173Z,2.10
2022-11-12T13:13:43.820Z,2.85
2022-11-12T13:17:00.444Z,2.90
2022-11-12T13:20:09.408Z,2.30
2022-11-12T13:25:44.181Z,2.50
2022-11-12T13:28:32.034Z,3.50
2022-11-12T13:31:30.049Z,3.22
2022-11-12T13:34:27.280Z,3.07
2022-11-12T13:37:22.203Z,2.92
2022-11-12T13:40:16.186Z,2.53
2022-11-12T13:43:31.420Z,3.40
2022-11-12T13:46:28.928Z,3.17
2022-11-12T13:49:18.849Z,3.10
2022-11-12T13:52:08.299Z,3.97
2022-11-12T13:55:03.799Z,3.40
2022-11-12T13:57:52.097Z,3.63
2022-11-12T14:00:40.169Z,3.30
2022-11-12T14:03:33.088Z,3.10
2022-11-12T14:06:33.324Z,3.63
2022-11-12T14:09:41.887Z,3.55
2022-11-12T14:13:12.355Z,3.47
2022-11-12T14:16:21.595Z,3.97
2022-11-12T14:19:43.913Z,3.83
2022-11-12T14:22:41.423Z,3.05
2022-11-12T14:25:30.857Z,3.70
2022-11-12T14:28:31.427Z,3.38
2022-11-12T14:31:26.088Z,4.07
2022-11-12T14:34:29.021Z,3.33
2022-11-12T14:37:39.815Z,4.07
2022-11-12T14:40:35.310Z,5.57
2022-11-12T14:43:32.078Z,4.10
2022-11-12T14:46:26.924Z,3.60
2022-11-12T14:49:22.997Z,3.20
2022-11-12T14:52:17.369Z,3.28
2022-11-12T14:55:13.883Z,3.30
2022-11-12T14:58:04.379Z,3.40
2022-11-12T15:00:55.077Z,3.28
2022-11-12T15:03:49.080Z,3.83
2022-11-12T15:06:36.834Z,3.67
2022-11-12T15:12:28.214Z,4.63
2022-11-12T15:15:25.320Z,4.18
2022-11-12T15:18:19.740Z,3.65
2022-11-12T15:21:16.347Z,3.90
2022-11-12T15:24:17.726Z,3.90
2022-11-12T15:27:36.133Z,3.90
2022-11-12T15:30:28.787Z,3.38
2022-11-12T15:33:22.555Z,4.20
2022-11-12T15:36:18.216Z,4.72
2022-11-12T15:39:14.981Z,4.80
2022-11-12T15:42:06.114Z,4.65
2022-11-12T15:45:01.114Z,4.60
2022-11-12T15:47:50.243Z,4.20
2022-11-12T15:50:39.149Z,4.22
2022-11-12T15:53:27.521Z,4.20
2022-11-12T15:56:19.516Z,4.30
2022-11-12T15:59:07.835Z,5.03
2022-11-12T16:01:55.662Z,6.80
2022-11-12T16:04:44.573Z,8.18
2022-11-12T16:07:32.279Z,7.43
2022-11-12T16:10:21.054Z,7.43
2022-11-12T16:13:15.148Z,5.40
2022-11-12T16:16:06.147Z,5.68
2022-11-12T16:18:53.895Z,7.80
2022-11-12T16:21:42.891Z,9.13
2022-11-12T16:24:30.787Z,10.10
2022-11-12T16:27:20.564Z,5.03
2022-11-12T16:30:16.602Z,7.85
2022-11-12T16:33:04.262Z,35.97
2022-11-12T16:35:52.155Z,7.00
2022-11-12T16:38:40.902Z,12.13
2022-11-12T16:41:28.504Z,11.88
2022-11-12T16:44:16.004Z,8.48
2022-11-12T16:47:05.522Z,7.25
2022-11-12T16:49:52.873Z,7.43
2022-11-12T16:52:40.602Z,5.60
2022-11-12T16:55:29.183Z,5.68
2022-11-12T16:58:16.785Z,5.32
2022-11-12T17:01:05.469Z,5.40
2022-11-12T17:03:53.934Z,6.55
2022-11-12T17:06:42.267Z,6.10
2022-11-12T17:09:29.788Z,5.88
2022-11-12T17:12:18.884Z,6.70
2022-11-12T17:15:08.792Z,39.58
2022-11-12T17:17:57.036Z,14.65
2022-11-12T17:20:49.921Z,12.55
2022-11-12T17:23:38.882Z,10.57
2022-11-12T17:26:26.227Z,15.20
2022-11-12T17:29:15.337Z,32.30
2022-11-12T17:32:05.632Z,13.88
2022-11-12T17:34:53.607Z,30.95
2022-11-12T17:37:41.503Z,10.20
2022-11-12T17:40:28.974Z,10.15
2022-11-12T17:43:16.583Z,9.13
2022-11-12T17:46:07.999Z,10.77
2022-11-12T17:48:56.661Z,20.92
2022-11-12T17:51:44.310Z,19.42
2022-11-12T17:57:19.216Z,20.85
2022-11-12T18:00:08.562Z,6.82
2022-11-12T18:02:58.261Z,11.50
2022-11-12T18:05:45.993Z,6.63
2022-11-12T18:11:21.944Z,12.32
2022-11-12T18:14:09.798Z,10.50
2022-11-12T18:17:01.371Z,8.60
2022-11-12T18:19:50.118Z,8.27
2022-11-12T18:22:43.687Z,10.45
2022-11-12T18:25:34.013Z,33.42
2022-11-12T18:28:21.855Z,27.90
2022-11-12T18:31:12.455Z,53.55
2022-11-12T18:33:59.675Z,24.05
2022-11-12T18:36:48.463Z,26.05
2022-11-12T18:39:35.711Z,27.98
2022-11-12T18:42:23.724Z,24.75
2022-11-12T18:45:12.034Z,12.38
2022-11-12T18:47:59.332Z,14.85
2022-11-12T18:50:47.347Z,12.07
2022-11-12T18:53:37.297Z,13.10
2022-11-12T18:56:25.292Z,13.13
2022-11-12T18:59:12.990Z,9.02
2022-11-12T19:02:00.605Z,9.13
2022-11-12T19:04:51.099Z,8.82
2022-11-12T19:07:38.911Z,8.88
2022-11-12T19:10:28.037Z,7.70
2022-11-12T19:13:15.444Z,7.93
2022-11-12T19:16:08.602Z,7.18
2022-11-12T19:18:56.279Z,7.25
2022-11-12T19:21:44.166Z,8.13
2022-11-12T19:24:32.098Z,7.50
2022-11-12T19:27:21.095Z,9.27
2022-11-12T19:30:10.697Z,9.00
2022-11-12T19:32:57.970Z,11.13
2022-11-12T19:35:45.451Z,12.55
2022-11-12T19:38:33.962Z,13.77
2022-11-12T19:41:24.771Z,14.02
2022-11-12T19:44:13.768Z,23.77
2022-11-12T19:47:01.565Z,29.23
2022-11-12T19:49:48.935Z,20.45
2022-11-12T19:52:36.516Z,13.25
2022-11-12T19:55:25.727Z,12.88
2022-11-12T19:58:13.083Z,11.82
2022-11-12T20:01:06.872Z,12.68
2022-11-12T20:03:54.910Z,12.95
2022-11-12T20:06:42.537Z,18.20
2022-11-12T20:09:30.139Z,20.35
2022-11-12T20:12:17.488Z,15.35
2022-11-12T20:15:07.739Z,15.35
2022-11-12T20:17:58.608Z,15.35
2022-11-12T20:20:51.639Z,15.05
2022-11-12T20:23:42.970Z,14.10
2022-11-12T20:26:30.494Z,14.40
2022-11-12T20:32:07.230Z,12.35
2022-11-12T20:34:56.561Z,11.45
2022-11-12T20:37:43.957Z,11.75
2022-11-12T20:40:32.614Z,13.70
2022-11-12T20:43:20.204Z,12.25
2022-11-12T20:46:07.654Z,12.00
2022-11-12T20:48:55.322Z,13.35
2022-11-12T20:54:31.554Z,13.82
2022-11-12T20:57:19.115Z,17.70
2022-11-12T21:00:13.271Z,15.48
2022-11-12T21:03:06.215Z,14.57
2022-11-12T21:05:59.586Z,13.82
2022-11-12T21:08:48.884Z,15.18
2022-11-12T21:11:36.807Z,14.63
2022-11-12T21:14:24.731Z,15.98
2022-11-12T21:17:12.065Z,16.58
2022-11-12T21:19:59.725Z,15.30
2022-11-12T21:25:39.211Z,15.45
2022-11-12T21:28:27.380Z,14.55
2022-11-12T21:31:17.902Z,14.45
2022-11-12T21:34:07.100Z,13.05
2022-11-12T21:36:55.111Z,14.23
2022-11-12T21:39:42.502Z,11.80
2022-11-12T21:42:31.510Z,13.05
2022-11-12T21:45:19.277Z,14.55
2022-11-12T21:48:06.858Z,12.70
2022-11-12T21:50:55.179Z,13.45
2022-11-12T21:53:44.878Z,13.20
2022-11-12T21:56:34.533Z,13.60
2022-11-12T21:59:28.655Z,12.82
2022-11-12T22:02:16.900Z,12.75
2022-11-12T22:05:06.005Z,13.57
2022-11-12T22:07:53.782Z,13.50
2022-11-12T22:13:29.404Z,13.70
2022-11-12T22:16:20.858Z,14.30
2022-11-12T22:19:08.772Z,13.73
2022-11-12T22:24:43.670Z,15.00
2022-11-12T22:27:33.850Z,15.40
2022-11-12T22:30:21.537Z,13.80
2022-11-12T22:33:10.643Z,14.63
2022-11-12T22:36:01.630Z,15.38
2022-11-12T22:38:52.777Z,14.65
2022-11-12T22:41:40.615Z,18.77
2022-11-12T22:47:15.396Z,13.27
2022-11-12T22:50:04.170Z,13.50
2022-11-12T22:52:51.994Z,12.98
2022-11-12T22:55:39.557Z,13.02
2022-11-12T22:58:27.552Z,13.30
2022-11-12T23:01:22.062Z,13.05
2022-11-12T23:04:10.374Z,12.52
2022-11-12T23:06:59.686Z,12.55
2022-11-12T23:09:47.136Z,12.82
2022-11-12T23:12:35.418Z,12.88
2022-11-12T23:15:23.236Z,13.35
2022-11-12T23:21:04.075Z,14.00
2022-11-12T23:23:53.610Z,13.13
2022-11-12T23:26:41.355Z,13.68
2022-11-12T23:29:29.456Z,13.35
2022-11-12T23:32:19.332Z,13.35
2022-11-12T23:35:08.222Z,14.60
2022-11-12T23:37:55.658Z,13.43
2022-11-12T23:40:55.373Z,13.00
2022-11-12T23:43:43.451Z,12.68
2022-11-12T23:46:31.122Z,13.25
2022-11-12T23:49:18.587Z,12.68
2022-11-12T23:52:06.322Z,11.82
2022-11-12T23:54:53.677Z,12.40
2022-11-12T23:57:44.378Z,13.48
